• Join FlightAware (Why Join?)
  • Login
  • US Flag 
11:50PM EDT


 

Airport Tracker/Info


-or-


 

Live Flight TrackerFlight Track Log ✈ N911DE ✈ 20-Apr-2012 ✈ KATL - KJAX

Flight Track Log - Related Links

Times and Time Zones

All times are in EDT time to prevent confusion due to time zone crossing. See the N911DE flight status page for this flight to view local times or setup timezone preferences in your user account.

Time Position Orientation Groundspeed Altitude Reporting Facility
EDT Latitude Longitude Course Direction KTS MPH feet Rate Location/Type
01:58PM 33.6311 -84.3756 113° Southeast 441 507 2,300  Level Atlanta Center
01:59PM 33.6042 -84.3008 159° South 331 381 4,700 2,700 Climbing Atlanta Center
01:59PM 33.5667 -84.2833 177° South 276 318 6,400 2,220 Climbing Atlanta TRACON
02:02PM 33.3786 -84.2728 140° Southeast 293 337 11,400 1,920 Climbing Atlanta Center
02:03PM 33.3017 -84.1953 140° Southeast 335 386 13,100 2,100 Climbing Atlanta Center
02:04PM 33.2181 -84.1108 140° Southeast 373 429 15,700 2,280 Climbing Atlanta Center
02:05PM 33.1325 -84.0239 143° Southeast 396 456 17,700 2,100 Climbing Atlanta Center
02:06PM 33.0281 -83.9297 147° Southeast 420 483 20,000 1,860 Climbing Atlanta Center
02:07PM 32.9467 -83.8656 145° Southeast 427 491 21,500 1,800 Climbing Atlanta Center
02:08PM 32.8358 -83.7719 144° Southeast 440 506 23,600 1,200 Climbing Atlanta Center
02:09PM 32.7375 -83.6881 142° Southeast 440 506 24,000 180 Climbing Atlanta Center
02:10PM 32.6414 -83.5997 140° Southeast 445 512 24,000  Level Atlanta Center
02:11PM 32.5492 -83.5067 140° Southeast 445 512 24,000  Level Atlanta Center
02:12PM 32.4589 -83.4183 140° Southeast 440 506 24,000  Level Atlanta Center
02:13PM 32.3494 -83.3081 140° Southeast 448 516 24,000  Level Jacksonville Center
02:14PM 32.2497 -83.2094 140° Southeast 448 516 24,000  Level Jacksonville Center
02:15PM 32.1558 -83.1158 140° Southeast 448 516 24,000  Level Jacksonville Center
02:16PM 32.0642 -83.0250 140° Southeast 448 516 24,000  Level Jacksonville Center
02:17PM 31.9703 -82.9317 140° Southeast 448 516 24,000  Level Jacksonville Center
02:18PM 31.8783 -82.8411 140° Southeast 448 516 24,000  Level Jacksonville Center
02:19PM 31.7864 -82.7508 141° Southeast 443 510 24,000  Level Jacksonville Center
02:20PM 31.6925 -82.6606 140° Southeast 443 510 24,000 -780 Level Jacksonville Center
02:21PM 31.6003 -82.5706 144° Southeast 443 510 22,500 -1,500 Descending Jacksonville Center
02:22PM 31.5061 -82.4906 158° South 433 498 21,100 -780 Descending Jacksonville Center
02:23PM 31.3994 -82.4397 157° South 416 479 21,000 -60 Descending Jacksonville Center
02:24PM 31.2928 -82.3869 158° South 411 473 21,000 -1,680 Level Jacksonville Center
02:25PM 31.1881 -82.3364 157° South 411 473 17,700 -3,180 Descending Jacksonville Center
02:26PM 31.0856 -82.2861 156° South 418 481 14,700 -2,880 Descending Jacksonville Center
02:27PM 30.9808 -82.2311 154° Southeast 400 460 12,100 -1,440 Descending Jacksonville Center
02:28PM 30.8847 -82.1761 155° Southeast 399 459 11,800 -540 Descending Jacksonville Center
02:29PM 30.7967 -82.1283 125° Southeast 333 383 11,100 -900 Descending Jacksonville Center
02:30PM 30.7503 -82.0514 116° Southeast 302 348 10,000 -1,320 Descending Jacksonville Center
02:31PM 30.7100 -81.9550 114° Southeast 298 343 8,400 -1,740 Descending Jacksonville Center
02:32PM 30.6800 -81.8756 116° Southeast 297 342 6,600 -2,040 Descending Jacksonville Center
02:33PM 30.6461 -81.7964 116° Southeast 282 325 4,600 -1,800 Descending Jacksonville Center
02:34PM 30.6139 -81.7194 105° East 277 319 3,000 -960 Descending Jacksonville Center
02:35PM 30.5922 -81.6256 109° East 201 231 2,500 -480 Descending Jacksonville Center
02:36PM 30.5769 -81.5728 183° South 190 219 2,000 -540 Descending Jacksonville Center
02:37PM 30.5333 -81.5758 254° West 182 209 1,500 -540 Descending Jacksonville Center
02:38PM 30.5211 -81.6242 250° West 166 191 1,000 -720 Descending Jacksonville Center
02:39PM 30.5069 -81.6703 250° West 158 182 200 -840 Descending Jacksonville Center